Time,TemperatureF,DewpointF,PressureIn,WindDirection,WindDirectionDegrees,WindSpeedMPH,WindSpeedGustMPH,Humidity,HourlyPrecipIn,Conditions,Clouds,dailyrainin,SoftwareType,DateUTC
2013-07-05 00:01:00,67.0,67.0,30.25,NNW,342,0.0,15.0,99,0.00,,,0.00,,2013-07-05 04:01:00,
2013-07-05 00:12:00,67.0,67.0,30.25,NNW,342,0.0,15.0,99,0.00,,,0.00,,2013-07-05 04:12:00,
2013-07-05 00:22:00,67.0,67.0,30.25,NNW,342,0.0,15.0,99,0.00,,,0.00,,2013-07-05 04:22:00,
2013-07-05 00:33:00,67.0,67.0,30.25,NNW,342,0.0,15.0,99,0.00,,,0.00,,2013-07-05 04:33:00,
2013-07-05 00:53:00,68.0,68.0,30.24,NNW,343,0.0,15.0,99,0.00,,,0.00,,2013-07-05 04:53:00,
2013-07-05 01:01:00,68.0,68.0,30.24,NNW,343,0.0,15.0,99,0.00,,,0.00,,2013-07-05 05:01:00,
2013-07-05 01:12:00,68.0,68.0,30.24,NNW,343,0.0,15.0,99,0.00,,,0.00,,2013-07-05 05:12:00,
2013-07-05 01:22:00,68.0,68.0,30.24,NNW,343,0.0,15.0,99,0.00,,,0.00,,2013-07-05 05:22:00,
2013-07-05 01:33:00,67.0,67.0,30.24,SW,222,0.0,15.0,99,0.00,,,0.00,,2013-07-05 05:33:00,
2013-07-05 01:43:00,67.0,67.0,30.24,SW,222,0.0,15.0,99,0.00,,,0.00,,2013-07-05 05:43:00,
2013-07-05 01:52:00,69.0,69.0,30.24,WSW,250,1.0,15.0,99,0.00,,,0.00,,2013-07-05 05:52:00,
2013-07-05 02:02:00,69.0,69.0,30.24,WSW,250,1.0,15.0,99,0.00,,,0.00,,2013-07-05 06:02:00,
2013-07-05 02:13:00,69.0,69.0,30.24,WSW,250,1.0,15.0,99,0.00,,,0.00,,2013-07-05 06:13:00,
2013-07-05 02:23:00,68.0,68.0,30.24,WNW,302,1.0,15.0,99,0.00,,,0.00,,2013-07-05 06:23:00,
2013-07-05 02:34:00,68.0,68.0,30.24,WNW,302,1.0,15.0,99,0.00,,,0.00,,2013-07-05 06:34:00,
2013-07-05 02:44:00,68.0,68.0,30.24,WNW,302,1.0,15.0,99,0.00,,,0.00,,2013-07-05 06:44:00,
2013-07-05 02:53:00,70.0,70.0,30.24,WNW,298,1.0,15.0,99,0.00,,,0.00,,2013-07-05 06:53:00,
2013-07-05 03:02:00,70.0,70.0,30.24,WNW,298,1.0,15.0,99,0.00,,,0.00,,2013-07-05 07:02:00,
2013-07-05 03:12:00,70.0,70.0,30.24,WNW,298,1.0,15.0,99,0.00,,,0.00,,2013-07-05 07:12:00,
2013-07-05 03:23:00,70.0,70.0,30.24,SSE,161,1.0,15.0,99,0.00,,,0.00,,2013-07-05 07:23:00,
2013-07-05 03:34:00,70.0,70.0,30.24,SSE,161,1.0,15.0,99,0.00,,,0.00,,2013-07-05 07:34:00,
2013-07-05 03:43:00,70.0,70.0,30.24,SSE,161,1.0,15.0,99,0.00,,,0.00,,2013-07-05 07:43:00,
2013-07-05 03:53:00,70.0,70.0,30.24,SW,223,0.0,15.0,99,0.00,,,0.00,,2013-07-05 07:53:00,
2013-07-05 04:03:00,70.0,70.0,30.24,SW,223,0.0,15.0,99,0.00,,,0.00,,2013-07-05 08:03:00,
2013-07-05 04:12:00,70.0,70.0,30.24,SW,223,0.0,15.0,99,0.00,,,0.00,,2013-07-05 08:12:00,
2013-07-05 04:23:00,70.0,70.0,30.24,West,281,0.0,15.0,99,0.00,,,0.00,,2013-07-05 08:23:00,
2013-07-05 04:33:00,70.0,70.0,30.24,West,281,0.0,15.0,99,0.00,,,0.00,,2013-07-05 08:33:00,
2013-07-05 04:44:00,70.0,70.0,30.24,West,281,0.0,15.0,99,0.00,,,0.00,,2013-07-05 08:44:00,
2013-07-05 04:57:00,70.0,70.0,30.24,SSE,157,0.0,15.0,99,0.00,,,0.00,,2013-07-05 08:57:00,
2013-07-05 05:08:00,70.0,70.0,30.24,SSE,157,0.0,15.0,99,0.00,,,0.00,,2013-07-05 09:08:00,
2013-07-05 05:16:00,70.0,70.0,30.24,SSE,157,0.0,15.0,99,0.00,,,0.00,,2013-07-05 09:16:00,
2013-07-05 05:28:00,69.0,69.0,30.24,SSW,192,0.0,15.0,99,0.00,,,0.00,,2013-07-05 09:28:00,
2013-07-05 05:37:00,69.0,69.0,30.24,SSW,192,0.0,15.0,99,0.00,,,0.00,,2013-07-05 09:37:00,
2013-07-05 05:48:00,69.0,69.0,30.24,SSW,192,0.0,15.0,99,0.00,,,0.00,,2013-07-05 09:48:00,
2013-07-05 05:57:00,69.0,69.0,30.25,NNW,330,0.0,15.0,99,0.00,,,0.00,,2013-07-05 09:57:00,
2013-07-05 06:08:00,69.0,69.0,30.25,NNW,330,0.0,15.0,99,0.00,,,0.00,,2013-07-05 10:08:00,
2013-07-05 06:20:00,69.0,69.0,30.25,NNW,330,0.0,15.0,99,0.00,,,0.00,,2013-07-05 10:20:00,
2013-07-05 06:27:00,69.0,69.0,30.26,WNW,285,0.0,15.0,99,0.00,,,0.00,,2013-07-05 10:27:00,
2013-07-05 06:37:00,69.0,69.0,30.26,WNW,285,0.0,15.0,99,0.00,,,0.00,,2013-07-05 10:37:00,
2013-07-05 06:47:00,69.0,69.0,30.26,WNW,285,0.0,15.0,99,0.00,,,0.00,,2013-07-05 10:47:00,
2013-07-05 06:58:00,70.0,70.0,30.26,WNW,285,0.0,15.0,99,0.00,,,0.00,,2013-07-05 10:58:00,
2013-07-05 07:10:00,70.0,70.0,30.26,WNW,285,0.0,15.0,99,0.00,,,0.00,,2013-07-05 11:10:00,
2013-07-05 07:18:00,70.0,70.0,30.26,WNW,285,0.0,15.0,99,0.00,,,0.00,,2013-07-05 11:18:00,
2013-07-05 07:25:00,71.0,71.0,30.26,SW,223,1.0,15.0,99,0.00,,,0.00,,2013-07-05 11:25:00,
2013-07-05 07:37:00,71.0,71.0,30.26,SW,223,1.0,15.0,99,0.00,,,0.00,,2013-07-05 11:37:00,
2013-07-05 07:51:00,71.0,71.0,30.26,SW,223,1.0,15.0,99,0.00,,,0.00,,2013-07-05 11:51:00,
2013-07-05 08:00:00,72.0,72.0,30.26,NW,313,1.0,15.0,99,0.00,,,0.00,,2013-07-05 12:00:00,
2013-07-05 08:10:00,72.0,72.0,30.26,NW,313,1.0,15.0,99,0.00,,,0.00,,2013-07-05 12:10:00,
2013-07-05 08:17:00,72.0,72.0,30.26,NW,313,1.0,15.0,99,0.00,,,0.00,,2013-07-05 12:17:00,
2013-07-05 08:26:00,74.0,74.0,30.26,SSW,206,1.0,15.0,99,0.00,,,0.00,,2013-07-05 12:26:00,
2013-07-05 08:37:00,74.0,74.0,30.26,SSW,206,1.0,15.0,99,0.00,,,0.00,,2013-07-05 12:37:00,
2013-07-05 09:00:00,76.0,76.0,30.26,West,278,0.0,15.0,99,0.00,,,0.00,,2013-07-05 13:00:00,
2013-07-05 09:07:00,76.0,76.0,30.26,West,278,0.0,15.0,99,0.00,,,0.00,,2013-07-05 13:07:00,
2013-07-05 09:14:00,76.0,76.0,30.26,West,278,0.0,15.0,99,0.00,,,0.00,,2013-07-05 13:14:00,
2013-07-05 09:26:00,78.0,77.0,30.26,SSE,158,2.0,15.0,97,0.00,,,0.00,,2013-07-05 13:26:00,
2013-07-05 09:39:00,78.0,77.0,30.26,SSE,158,2.0,15.0,97,0.00,,,0.00,,2013-07-05 13:39:00,
2013-07-05 09:50:00,78.0,77.0,30.26,SSE,158,2.0,15.0,97,0.00,,,0.00,,2013-07-05 13:50:00,
2013-07-05 09:58:00,78.0,77.0,30.25,SSE,161,0.0,15.0,97,0.00,,,0.00,,2013-07-05 13:58:00,
2013-07-05 10:07:00,78.0,77.0,30.25,SSE,161,0.0,15.0,97,0.00,,,0.00,,2013-07-05 14:07:00,
2013-07-05 10:16:00,78.0,77.0,30.25,SSE,161,0.0,15.0,97,0.00,,,0.00,,2013-07-05 14:16:00,
2013-07-05 10:28:00,80.0,79.0,30.24,SSW,199,0.0,15.0,96,0.00,,,0.00,,2013-07-05 14:28:00,
2013-07-05 10:38:00,80.0,79.0,30.24,SSW,199,0.0,15.0,96,0.00,,,0.00,,2013-07-05 14:38:00,
2013-07-05 10:47:00,80.0,79.0,30.24,SSW,199,0.0,15.0,96,0.00,,,0.00,,2013-07-05 14:47:00,
2013-07-05 10:58:00,79.0,77.0,30.24,South,172,2.0,15.0,95,0.00,,,0.00,,2013-07-05 14:58:00,
2013-07-05 11:07:00,79.0,77.0,30.24,South,172,2.0,15.0,95,0.00,,,0.00,,2013-07-05 15:07:00,
2013-07-05 11:18:00,79.0,77.0,30.24,South,172,2.0,15.0,95,0.00,,,0.00,,2013-07-05 15:18:00,
2013-07-05 11:34:00,77.0,75.0,30.24,SSW,192,0.0,15.0,94,0.00,,,0.00,,2013-07-05 15:34:00,
2013-07-05 11:43:00,77.0,75.0,30.24,SSW,192,0.0,15.0,94,0.00,,,0.00,,2013-07-05 15:43:00,
2013-07-05 12:11:00,77.0,75.0,30.24,South,180,3.0,15.0,93,0.00,,,0.00,,2013-07-05 16:11:00,
2013-07-05 12:44:00,76.0,74.0,30.24,WNW,286,3.0,15.0,93,0.00,,,0.00,,2013-07-05 16:44:00,
2013-07-05 12:53:00,76.0,73.0,30.23,South,181,2.0,15.0,91,0.00,,,0.00,,2013-07-05 16:53:00,
2013-07-05 14:02:00,76.0,72.0,30.22,ESE,120,1.0,15.0,88,0.00,,,0.00,,2013-07-05 18:02:00,
2013-07-05 14:11:00,76.0,72.0,30.22,ESE,120,1.0,15.0,88,0.00,,,0.00,,2013-07-05 18:11:00,
2013-07-05 17:22:00,76.0,74.0,30.18,South,172,1.0,15.0,92,0.00,,,0.00,,2013-07-05 21:22:00,
2013-07-05 17:34:00,76.0,74.0,30.18,South,172,1.0,15.0,92,0.00,,,0.00,,2013-07-05 21:34:00,
2013-07-05 17:43:00,76.0,74.0,30.18,South,172,1.0,15.0,92,0.00,,,0.00,,2013-07-05 21:43:00,
2013-07-05 19:11:00,72.0,71.0,30.17,South,191,0.0,15.0,97,0.00,,,0.00,,2013-07-05 23:11:00,
2013-07-05 19:32:00,72.0,71.0,30.17,ESE,114,0.0,15.0,97,0.00,,,0.00,,2013-07-05 23:32:00,
2013-07-05 19:43:00,72.0,71.0,30.17,ESE,114,0.0,15.0,97,0.00,,,0.00,,2013-07-05 23:43:00,
2013-07-05 19:53:00,72.0,71.0,30.16,SSE,168,1.0,15.0,96,0.00,,,0.00,,2013-07-05 23:53:00,
2013-07-05 20:02:00,72.0,71.0,30.16,SSE,168,1.0,15.0,96,0.00,,,0.00,,2013-07-06 00:02:00,
2013-07-05 20:12:00,72.0,71.0,30.16,SSE,168,1.0,15.0,96,0.00,,,0.00,,2013-07-06 00:12:00,
2013-07-05 20:22:00,72.0,71.0,30.16,SE,136,1.0,15.0,97,0.00,,,0.00,,2013-07-06 00:22:00,
2013-07-05 20:33:00,72.0,71.0,30.16,SE,136,1.0,15.0,97,0.00,,,0.00,,2013-07-06 00:33:00,
2013-07-05 20:43:00,72.0,71.0,30.16,SE,136,1.0,15.0,97,0.00,,,0.00,,2013-07-06 00:43:00,
2013-07-05 20:53:00,71.0,71.0,30.16,SSW,192,0.0,15.0,99,0.00,,,0.00,,2013-07-06 00:53:00,
2013-07-05 21:02:00,71.0,71.0,30.16,SSW,192,0.0,15.0,99,0.00,,,0.00,,2013-07-06 01:02:00,
2013-07-05 21:12:00,71.0,71.0,30.16,SSW,192,0.0,15.0,99,0.00,,,0.00,,2013-07-06 01:12:00,
2013-07-05 21:22:00,70.0,70.0,30.17,South,172,0.0,15.0,99,0.00,,,0.00,,2013-07-06 01:22:00,
2013-07-05 21:33:00,70.0,70.0,30.17,South,172,0.0,15.0,99,0.00,,,0.00,,2013-07-06 01:33:00,
2013-07-05 21:43:00,70.0,70.0,30.17,South,172,0.0,15.0,99,0.00,,,0.00,,2013-07-06 01:43:00,
2013-07-05 21:53:00,69.0,69.0,30.17,SSE,150,0.0,15.0,99,0.00,,,0.00,,2013-07-06 01:53:00,
2013-07-05 22:02:00,69.0,69.0,30.17,SSE,150,0.0,15.0,99,0.00,,,0.00,,2013-07-06 02:02:00,
2013-07-05 22:12:00,69.0,69.0,30.17,SSE,150,0.0,15.0,99,0.00,,,0.00,,2013-07-06 02:12:00,
2013-07-05 22:34:00,69.0,69.0,30.18,WNW,299,0.0,15.0,99,0.00,,,0.00,,2013-07-06 02:34:00,
2013-07-05 22:43:00,69.0,69.0,30.18,WNW,299,0.0,15.0,99,0.00,,,0.00,,2013-07-06 02:43:00,
2013-07-05 22:53:00,68.0,68.0,30.17,SSE,160,0.0,15.0,99,0.00,,,0.00,,2013-07-06 02:53:00,
2013-07-05 23:02:00,68.0,68.0,30.17,SSE,160,0.0,15.0,99,0.00,,,0.00,,2013-07-06 03:02:00,
2013-07-05 23:12:00,68.0,68.0,30.17,SSE,160,0.0,15.0,99,0.00,,,0.00,,2013-07-06 03:12:00,
2013-07-05 23:22:00,68.0,68.0,30.17,SE,138,0.0,15.0,99,0.00,,,0.00,,2013-07-06 03:22:00,
2013-07-05 23:34:00,68.0,68.0,30.17,SE,138,0.0,15.0,99,0.00,,,0.00,,2013-07-06 03:34:00,
2013-07-05 23:43:00,68.0,68.0,30.17,SE,138,0.0,15.0,99,0.00,,,0.00,,2013-07-06 03:43:00,
2013-07-05 23:53:00,68.0,68.0,30.17,SSW,206,0.0,15.0,99,0.00,,,0.00,,2013-07-06 03:53:00,